createdAt,value
2018-07-03T00:00:47.047Z,0.50
2018-07-03T00:03:15.369Z,0.50
2018-07-03T00:05:43.693Z,0.53
2018-07-03T00:08:12.054Z,0.43
2018-07-03T00:10:40.231Z,0.50
2018-07-03T00:13:08.408Z,0.50
2018-07-03T00:15:36.584Z,0.50
2018-07-03T00:18:04.971Z,0.70
2018-07-03T00:20:33.174Z,0.40
2018-07-03T00:23:01.409Z,0.50
2018-07-03T00:25:29.591Z,0.60
2018-07-03T00:27:57.871Z,0.50
2018-07-03T00:30:26.150Z,0.67
2018-07-03T00:32:54.473Z,0.50
2018-07-03T00:35:22.701Z,0.70
2018-07-03T00:37:50.953Z,0.50
2018-07-03T00:40:19.186Z,0.67
2018-07-03T00:42:47.572Z,0.70
2018-07-03T00:45:15.793Z,0.70
2018-07-03T00:47:43.950Z,0.60
2018-07-03T00:50:12.131Z,0.50
2018-07-03T00:52:40.407Z,0.60
2018-07-03T00:55:08.636Z,0.60
2018-07-03T00:57:36.870Z,0.50
2018-07-03T01:00:16.615Z,0.87
2018-07-03T01:02:44.883Z,0.80
2018-07-03T01:05:13.212Z,0.60
2018-07-03T01:07:41.429Z,0.77
2018-07-03T01:10:09.605Z,0.87
2018-07-03T01:12:37.769Z,0.60
2018-07-03T01:15:05.956Z,0.70
2018-07-03T01:17:34.135Z,0.70
2018-07-03T01:20:02.402Z,0.77
2018-07-03T01:22:30.671Z,0.70
2018-07-03T01:24:58.844Z,0.80
2018-07-03T01:27:27.078Z,0.60
2018-07-03T01:29:55.416Z,0.70
2018-07-03T01:32:23.686Z,0.80
2018-07-03T01:34:51.968Z,0.70
2018-07-03T01:37:20.244Z,0.73
2018-07-03T01:39:48.496Z,0.50
2018-07-03T01:42:16.664Z,0.50
2018-07-03T01:44:44.867Z,0.77
2018-07-03T01:47:13.767Z,0.40
2018-07-03T01:49:42.176Z,0.50
2018-07-03T01:52:10.395Z,0.60
2018-07-03T01:54:38.685Z,0.77
2018-07-03T01:57:06.961Z,0.90
2018-07-03T01:59:35.213Z,0.80
2018-07-03T02:02:03.433Z,0.70
2018-07-03T02:04:31.678Z,0.80
2018-07-03T02:06:59.964Z,0.70
2018-07-03T02:09:28.236Z,0.60
2018-07-03T02:11:56.468Z,0.73
2018-07-03T02:14:24.689Z,1.10
2018-07-03T02:16:52.952Z,0.90
2018-07-03T02:19:21.264Z,0.80
2018-07-03T02:21:49.484Z,0.60
2018-07-03T02:24:17.648Z,0.60
2018-07-03T02:26:45.842Z,0.70
2018-07-03T02:29:14.208Z,0.90
2018-07-03T02:31:42.395Z,0.83
2018-07-03T02:34:10.709Z,0.80
2018-07-03T02:36:39.013Z,1.00
2018-07-03T02:39:08.271Z,0.60
2018-07-03T02:41:36.433Z,0.80
2018-07-03T02:44:04.793Z,0.80
2018-07-03T02:46:33.063Z,0.80
2018-07-03T02:49:01.305Z,0.87
2018-07-03T02:51:29.477Z,1.00
2018-07-03T02:53:57.792Z,0.70
2018-07-03T02:56:27.016Z,0.70
2018-07-03T02:58:55.333Z,0.70
2018-07-03T03:01:23.603Z,0.90
2018-07-03T03:03:51.812Z,0.90
2018-07-03T03:06:19.987Z,0.70
2018-07-03T03:08:48.250Z,0.80
2018-07-03T03:11:16.667Z,0.53
2018-07-03T03:13:44.912Z,0.80
2018-07-03T03:16:15.013Z,0.57
2018-07-03T03:18:43.693Z,0.80
2018-07-03T03:21:11.877Z,1.00
2018-07-03T03:23:40.069Z,0.90
2018-07-03T03:26:08.313Z,0.90
2018-07-03T03:28:36.523Z,0.70
2018-07-03T03:31:04.865Z,0.80
2018-07-03T03:33:33.068Z,0.83
2018-07-03T03:36:01.319Z,0.60
2018-07-03T03:38:29.544Z,0.50
2018-07-03T03:40:57.915Z,0.87
2018-07-03T03:43:26.172Z,0.70
2018-07-03T03:45:54.473Z,0.70
2018-07-03T03:48:22.712Z,0.73
2018-07-03T03:50:50.888Z,0.80
2018-07-03T03:53:19.050Z,0.97
2018-07-03T03:55:47.260Z,0.60
2018-07-03T03:58:15.508Z,0.70
2018-07-03T04:00:43.764Z,0.70
2018-07-03T04:03:11.964Z,0.70
2018-07-03T04:05:40.131Z,0.70
2018-07-03T04:08:08.388Z,0.60
2018-07-03T04:10:36.936Z,0.50
2018-07-03T04:13:05.661Z,0.73
2018-07-03T04:15:33.686Z,0.90
2018-07-03T04:18:01.959Z,0.70
2018-07-03T04:20:30.562Z,0.87
2018-07-03T04:22:58.855Z,0.80
2018-07-03T04:25:27.078Z,0.70
2018-07-03T04:27:55.332Z,0.80
2018-07-03T04:30:23.533Z,0.70
2018-07-03T04:32:51.768Z,0.83
2018-07-03T04:35:19.941Z,1.03
2018-07-03T04:37:48.128Z,0.90
2018-07-03T04:40:16.325Z,0.50
2018-07-03T04:42:44.572Z,0.87
2018-07-03T04:45:12.537Z,0.67
2018-07-03T04:47:40.695Z,0.80
2018-07-03T04:50:09.496Z,0.63
2018-07-03T04:52:37.664Z,0.73
2018-07-03T04:55:05.903Z,0.60
2018-07-03T04:57:34.126Z,1.00
2018-07-03T05:00:02.337Z,1.03
2018-07-03T05:02:30.570Z,1.07
2018-07-03T05:04:58.824Z,1.17
2018-07-03T05:07:27.018Z,1.40
2018-07-03T05:09:55.213Z,1.30
2018-07-03T05:12:23.463Z,1.17
2018-07-03T05:14:51.806Z,1.40
2018-07-03T05:17:20.043Z,0.93
2018-07-03T05:19:48.634Z,1.00
2018-07-03T05:22:16.900Z,1.30
2018-07-03T05:24:56.897Z,1.40
2018-07-03T05:27:25.372Z,0.97
2018-07-03T05:29:53.549Z,1.50
2018-07-03T05:32:21.734Z,1.40
2018-07-03T05:34:49.893Z,1.30
2018-07-03T05:37:18.175Z,0.90
2018-07-03T05:39:46.264Z,1.10
2018-07-03T05:42:14.471Z,1.70
2018-07-03T05:44:42.735Z,1.30
2018-07-03T05:47:10.883Z,1.30
2018-07-03T05:49:39.272Z,1.30
2018-07-03T05:52:07.431Z,1.60
2018-07-03T05:54:35.594Z,1.10
2018-07-03T05:57:04.940Z,1.50
2018-07-03T05:59:33.099Z,1.00
2018-07-03T06:02:01.471Z,1.40
2018-07-03T06:04:29.660Z,1.50
2018-07-03T06:06:57.818Z,1.27
2018-07-03T06:09:26.017Z,1.20
2018-07-03T06:11:54.191Z,1.40
2018-07-03T06:14:22.496Z,1.10
2018-07-03T06:16:54.450Z,1.30
2018-07-03T06:19:23.288Z,1.30
2018-07-03T06:21:51.654Z,1.40
2018-07-03T06:24:19.890Z,1.00
2018-07-03T06:26:48.169Z,1.00
2018-07-03T06:29:16.321Z,1.10
2018-07-03T06:31:44.561Z,1.23
2018-07-03T06:34:12.711Z,1.30
2018-07-03T06:36:40.883Z,1.17
2018-07-03T06:39:11.009Z,1.20
2018-07-03T06:41:39.481Z,1.20
2018-07-03T06:44:07.818Z,1.10
2018-07-03T06:46:35.976Z,1.10
2018-07-03T06:49:04.164Z,1.43
2018-07-03T06:51:32.400Z,1.00
2018-07-03T06:54:00.561Z,1.30
2018-07-03T06:56:28.859Z,1.10
2018-07-03T06:58:57.879Z,1.00
2018-07-03T07:01:26.041Z,1.10
2018-07-03T07:03:54.208Z,0.83
2018-07-03T07:06:22.380Z,1.10
2018-07-03T07:08:50.645Z,0.77
2018-07-03T07:11:18.692Z,1.40
2018-07-03T07:13:46.852Z,1.40
2018-07-03T07:16:15.247Z,1.10
2018-07-03T07:18:43.405Z,1.30
2018-07-03T07:21:11.573Z,1.20
2018-07-03T07:23:43.543Z,1.20
2018-07-03T07:26:11.716Z,1.30
2018-07-03T07:28:39.877Z,0.80
2018-07-03T07:31:08.037Z,1.10
2018-07-03T07:33:36.277Z,1.00
2018-07-03T07:36:04.480Z,1.00
2018-07-03T07:38:32.628Z,0.90
2018-07-03T07:41:00.785Z,1.10
2018-07-03T07:43:28.946Z,1.10
2018-07-03T07:45:57.272Z,1.10
2018-07-03T07:48:25.659Z,0.97
2018-07-03T07:50:53.832Z,0.90
2018-07-03T07:53:22.005Z,1.00
2018-07-03T07:55:50.169Z,0.80
2018-07-03T07:58:18.416Z,1.07
2018-07-03T08:00:46.576Z,1.37
2018-07-03T08:03:14.849Z,1.30
2018-07-03T08:05:43.017Z,1.50
2018-07-03T08:08:11.179Z,1.70
2018-07-03T08:10:39.327Z,1.40
2018-07-03T08:13:07.970Z,1.87
2018-07-03T08:15:36.128Z,1.50
2018-07-03T08:18:04.295Z,1.90
2018-07-03T08:20:32.477Z,1.43
2018-07-03T08:23:00.769Z,1.70
2018-07-03T08:25:28.919Z,1.47
2018-07-03T08:27:57.189Z,1.20
2018-07-03T08:30:25.358Z,1.23
2018-07-03T08:35:31.617Z,1.10
2018-07-03T08:37:59.783Z,1.30
2018-07-03T08:40:27.943Z,1.30
2018-07-03T08:42:56.154Z,1.20
2018-07-03T08:45:24.333Z,1.20
2018-07-03T08:47:52.876Z,1.10
2018-07-03T08:50:21.048Z,1.10
2018-07-03T08:52:49.208Z,1.10
2018-07-03T08:55:17.785Z,0.97
2018-07-03T08:57:45.719Z,1.20
2018-07-03T09:00:13.872Z,1.20
2018-07-03T09:02:42.057Z,1.00
2018-07-03T09:05:10.543Z,1.20
2018-07-03T09:07:38.815Z,1.20
2018-07-03T09:10:07.536Z,0.80
2018-07-03T09:12:35.741Z,0.70
2018-07-03T09:15:04.348Z,1.10
2018-07-03T09:17:32.523Z,1.00
2018-07-03T09:20:01.552Z,0.80
2018-07-03T09:22:30.017Z,0.97
2018-07-03T09:24:58.247Z,0.93
2018-07-03T09:27:26.422Z,1.23
2018-07-03T09:29:54.574Z,1.20
2018-07-03T09:32:22.511Z,1.20
2018-07-03T09:34:50.668Z,1.00
2018-07-03T09:37:18.909Z,0.90
2018-07-03T09:39:47.067Z,0.70
2018-07-03T09:42:15.100Z,1.00
2018-07-03T09:44:43.259Z,1.00
2018-07-03T09:47:11.438Z,1.10
2018-07-03T09:49:39.620Z,0.97
2018-07-03T09:52:07.788Z,0.80
2018-07-03T09:54:35.956Z,0.93
2018-07-03T09:57:04.134Z,0.80
2018-07-03T09:59:32.300Z,1.00
2018-07-03T10:02:00.544Z,1.20
2018-07-03T10:04:28.699Z,1.20
2018-07-03T10:06:56.881Z,1.13
2018-07-03T10:09:25.040Z,0.90
2018-07-03T10:11:53.220Z,1.00
2018-07-03T10:14:21.215Z,0.97
2018-07-03T10:16:49.395Z,1.00
2018-07-03T10:19:17.617Z,0.83
2018-07-03T10:21:45.791Z,0.87
2018-07-03T10:24:13.945Z,1.00
2018-07-03T10:26:42.442Z,1.00
2018-07-03T10:29:10.651Z,1.13
2018-07-03T10:31:38.819Z,1.00
2018-07-03T10:34:06.987Z,1.10
2018-07-03T10:36:35.140Z,0.97
2018-07-03T10:39:03.441Z,0.90
2018-07-03T10:41:31.593Z,0.87
2018-07-03T10:43:59.764Z,0.97
2018-07-03T10:46:27.930Z,0.90
2018-07-03T10:48:56.093Z,1.10
2018-07-03T10:51:24.470Z,0.90
2018-07-03T10:53:52.627Z,0.93
2018-07-03T10:56:20.791Z,1.20
2018-07-03T10:58:48.999Z,1.10
2018-07-03T11:01:17.169Z,0.90
2018-07-03T11:03:45.336Z,1.00
2018-07-03T11:06:13.495Z,1.20
2018-07-03T11:08:41.655Z,1.20
2018-07-03T11:11:09.882Z,1.20
2018-07-03T11:13:38.054Z,1.20
2018-07-03T11:16:06.213Z,0.90
2018-07-03T11:18:34.406Z,1.10
2018-07-03T11:21:02.548Z,1.10
2018-07-03T11:23:30.720Z,1.40
2018-07-03T11:25:58.890Z,1.37
2018-07-03T11:28:27.054Z,1.13
2018-07-03T11:30:55.199Z,1.10
2018-07-03T11:33:23.359Z,1.10
2018-07-03T11:35:51.524Z,1.20
2018-07-03T11:38:19.684Z,1.20
2018-07-03T11:40:47.997Z,0.80
2018-07-03T11:43:16.163Z,1.23
2018-07-03T11:45:44.302Z,1.13
2018-07-03T11:48:12.506Z,1.30
2018-07-03T11:50:40.659Z,1.10
2018-07-03T11:53:08.813Z,1.20
2018-07-03T11:55:37.029Z,0.90
2018-07-03T11:58:05.177Z,1.33
2018-07-03T12:00:33.353Z,1.20
2018-07-03T12:03:01.521Z,1.20
2018-07-03T12:05:29.790Z,1.10
2018-07-03T12:07:57.949Z,1.10
2018-07-03T12:10:26.098Z,1.20
2018-07-03T12:12:55.503Z,1.07
2018-07-03T12:15:23.698Z,1.20
2018-07-03T12:17:51.878Z,1.27
2018-07-03T12:20:20.033Z,1.20
2018-07-03T12:22:49.199Z,1.00
2018-07-03T12:25:17.444Z,0.87
2018-07-03T12:27:45.785Z,1.00
2018-07-03T12:30:15.266Z,1.27
2018-07-03T12:32:44.444Z,0.97
2018-07-03T12:35:13.319Z,0.93
2018-07-03T12:37:41.518Z,1.00
2018-07-03T12:40:09.690Z,1.43
2018-07-03T12:42:38.449Z,1.20
2018-07-03T12:45:06.899Z,1.10
2018-07-03T12:47:35.177Z,1.03
2018-07-03T12:50:03.381Z,1.10
2018-07-03T12:52:31.585Z,1.20
2018-07-03T12:54:59.842Z,0.93
2018-07-03T12:57:28.025Z,1.00
2018-07-03T12:59:56.901Z,1.53
2018-07-03T13:02:25.197Z,1.20
2018-07-03T13:04:53.738Z,1.20
2018-07-03T13:07:22.052Z,1.30
2018-07-03T13:09:50.244Z,1.20
2018-07-03T13:12:18.390Z,1.30
2018-07-03T13:14:46.570Z,1.10
2018-07-03T13:17:14.748Z,1.10
2018-07-03T13:19:42.942Z,1.17
2018-07-03T13:22:11.109Z,1.17
2018-07-03T13:24:39.277Z,0.80
2018-07-03T13:27:07.444Z,1.00
2018-07-03T13:29:35.669Z,1.30
2018-07-03T13:32:03.995Z,1.10
2018-07-03T13:34:32.164Z,1.00
2018-07-03T13:37:00.453Z,1.23
2018-07-03T13:39:28.808Z,1.20
2018-07-03T13:41:56.960Z,1.30
2018-07-03T13:44:25.153Z,1.00
2018-07-03T13:46:53.696Z,1.17
2018-07-03T13:49:22.389Z,1.10
2018-07-03T13:51:51.296Z,1.00
2018-07-03T13:54:19.460Z,1.10
2018-07-03T13:56:47.622Z,1.20
2018-07-03T13:59:15.792Z,1.20
2018-07-03T14:01:44.062Z,1.37
2018-07-03T14:04:18.968Z,1.00
2018-07-03T14:06:47.380Z,1.20
2018-07-03T14:09:15.655Z,1.00
2018-07-03T14:11:43.825Z,0.90
2018-07-03T14:14:12.000Z,1.13
2018-07-03T14:16:40.163Z,1.10
2018-07-03T14:19:09.047Z,0.90
2018-07-03T14:21:37.229Z,0.90
2018-07-03T14:24:05.431Z,0.93
2018-07-03T14:26:33.677Z,1.17
2018-07-03T14:29:01.876Z,1.10
2018-07-03T14:31:30.092Z,0.90
2018-07-03T14:33:58.323Z,0.90
2018-07-03T14:36:26.572Z,1.20
2018-07-03T14:38:54.894Z,0.97
2018-07-03T14:41:23.068Z,0.90
2018-07-03T14:43:51.504Z,0.80
2018-07-03T14:46:19.677Z,1.10
2018-07-03T14:48:47.844Z,0.90
2018-07-03T14:51:16.114Z,0.77
2018-07-03T14:53:44.312Z,1.13
2018-07-03T14:56:12.458Z,1.00
2018-07-03T14:58:40.877Z,0.90
2018-07-03T15:01:09.036Z,1.07
2018-07-03T15:03:37.300Z,1.00
2018-07-03T15:06:05.506Z,1.00
2018-07-03T15:08:33.660Z,1.03
2018-07-03T15:11:01.931Z,1.10
2018-07-03T15:13:30.134Z,1.10
2018-07-03T15:15:58.290Z,1.23
2018-07-03T15:18:30.771Z,1.10
2018-07-03T15:20:58.945Z,0.97
2018-07-03T15:23:27.113Z,1.00
2018-07-03T15:25:55.327Z,1.10
2018-07-03T15:28:23.443Z,1.23
2018-07-03T15:30:51.608Z,1.00
2018-07-03T15:33:19.774Z,0.87
2018-07-03T15:35:47.941Z,1.10
2018-07-03T15:38:16.181Z,1.10
2018-07-03T15:40:44.342Z,0.87
2018-07-03T15:43:12.492Z,0.90
2018-07-03T15:45:40.660Z,1.20
2018-07-03T15:48:08.825Z,1.10
2018-07-03T15:50:36.997Z,1.10
2018-07-03T15:53:05.483Z,0.80
2018-07-03T15:55:33.649Z,0.90
2018-07-03T15:58:01.809Z,0.90
2018-07-03T16:00:30.001Z,1.13
2018-07-03T16:03:09.551Z,0.90
2018-07-03T16:05:56.167Z,0.83
2018-07-03T16:08:36.622Z,0.90
2018-07-03T16:11:04.796Z,0.70
2018-07-03T16:13:32.942Z,0.70
2018-07-03T16:16:01.153Z,1.10
2018-07-03T16:18:29.316Z,0.90
2018-07-03T16:20:57.485Z,0.80
2018-07-03T16:23:25.652Z,1.00
2018-07-03T16:25:53.870Z,0.80
2018-07-03T16:28:22.140Z,0.87
2018-07-03T16:30:50.321Z,0.90
2018-07-03T16:33:19.818Z,0.90
2018-07-03T16:35:47.997Z,1.00
2018-07-03T16:38:16.148Z,0.90
2018-07-03T16:40:44.311Z,0.90
2018-07-03T16:43:12.463Z,0.70
2018-07-03T16:45:40.619Z,0.90
2018-07-03T16:48:08.782Z,1.00
2018-07-03T16:50:36.937Z,0.70
2018-07-03T16:53:05.116Z,1.33
2018-07-03T16:55:33.284Z,1.17
2018-07-03T16:58:01.448Z,0.83
2018-07-03T17:00:29.621Z,1.00
2018-07-03T17:02:58.093Z,1.10
2018-07-03T17:05:26.337Z,1.07
2018-07-03T17:07:54.543Z,1.00
2018-07-03T17:10:22.721Z,0.77
2018-07-03T17:12:51.319Z,0.70
2018-07-03T17:15:19.483Z,0.70
2018-07-03T17:17:47.640Z,0.80
2018-07-03T17:20:16.210Z,0.80
2018-07-03T17:22:44.868Z,0.90
2018-07-03T17:25:14.357Z,0.80
2018-07-03T17:27:44.184Z,0.70
2018-07-03T17:30:13.183Z,0.70
2018-07-03T17:32:41.381Z,0.70
2018-07-03T17:35:11.505Z,0.90
2018-07-03T17:37:40.536Z,0.80
2018-07-03T17:40:20.263Z,0.70
2018-07-03T17:45:04.725Z,0.80
2018-07-03T17:47:33.895Z,0.70
2018-07-03T17:50:02.697Z,0.90
2018-07-03T17:52:31.004Z,1.10
2018-07-03T17:55:00.189Z,0.90
2018-07-03T17:57:28.387Z,0.70
2018-07-03T17:59:56.540Z,1.00
2018-07-03T18:02:25.935Z,1.00
2018-07-03T18:04:54.388Z,0.80
2018-07-03T18:07:24.155Z,0.70
2018-07-03T18:09:52.336Z,0.80
2018-07-03T18:12:20.504Z,0.73
2018-07-03T18:14:48.662Z,0.70
2018-07-03T18:17:16.825Z,0.70
2018-07-03T18:19:44.976Z,0.70
2018-07-03T18:22:13.132Z,0.80
2018-07-03T18:24:41.292Z,0.80
2018-07-03T18:27:09.531Z,0.70
2018-07-03T18:29:37.738Z,0.73
2018-07-03T18:32:05.914Z,0.70
2018-07-03T18:34:34.119Z,0.73
2018-07-03T18:37:02.357Z,0.83
2018-07-03T18:39:30.528Z,1.00
2018-07-03T18:41:58.676Z,1.20
2018-07-03T18:44:26.848Z,1.00
2018-07-03T18:46:55.087Z,1.07
2018-07-03T18:49:23.262Z,1.30
2018-07-03T18:51:51.488Z,1.00
2018-07-03T18:54:19.667Z,1.00
2018-07-03T18:56:47.833Z,1.17
2018-07-03T18:59:15.980Z,1.10
2018-07-03T19:01:44.145Z,1.20
2018-07-03T19:04:12.317Z,1.00
2018-07-03T19:06:55.341Z,0.83
2018-07-03T19:09:23.574Z,1.00
2018-07-03T19:11:52.267Z,1.00
2018-07-03T19:14:20.443Z,1.00
2018-07-03T19:16:48.636Z,0.90
2018-07-03T19:19:17.015Z,0.90
2018-07-03T19:21:45.245Z,1.10
2018-07-03T19:24:13.407Z,0.63
2018-07-03T19:26:41.565Z,0.63
2018-07-03T19:29:09.779Z,0.73
2018-07-03T19:31:38.042Z,0.70
2018-07-03T19:34:06.204Z,0.53
2018-07-03T19:36:34.364Z,0.50
2018-07-03T19:39:02.545Z,0.67
2018-07-03T19:41:30.702Z,0.60
2018-07-03T19:43:59.109Z,0.73
2018-07-03T19:46:27.299Z,0.80
2018-07-03T19:48:55.469Z,0.70
2018-07-03T19:51:23.617Z,0.50
2018-07-03T19:53:51.821Z,0.90
2018-07-03T19:56:19.767Z,0.70
2018-07-03T19:58:48.842Z,0.80
2018-07-03T20:01:17.303Z,0.73
2018-07-03T20:03:45.543Z,0.90
2018-07-03T20:06:13.695Z,0.70
2018-07-03T20:08:42.325Z,0.80
2018-07-03T20:11:10.736Z,0.70
2018-07-03T20:13:38.903Z,0.60
2018-07-03T20:16:07.105Z,0.50
2018-07-03T20:18:35.548Z,0.80
2018-07-03T20:21:04.162Z,0.70
2018-07-03T20:23:32.616Z,0.60
2018-07-03T20:26:00.859Z,0.80
2018-07-03T20:28:29.021Z,0.60
2018-07-03T20:30:57.178Z,0.60
2018-07-03T20:33:25.461Z,0.73
2018-07-03T20:35:53.623Z,0.60
2018-07-03T20:38:21.805Z,0.67
2018-07-03T20:40:55.143Z,0.70
2018-07-03T20:43:23.764Z,0.80
2018-07-03T20:45:51.933Z,0.80
2018-07-03T20:48:20.109Z,0.60
2018-07-03T20:50:48.269Z,0.73
2018-07-03T20:53:16.744Z,0.70
2018-07-03T20:55:45.108Z,0.80
2018-07-03T20:58:13.302Z,0.70
2018-07-03T21:00:41.434Z,0.70
2018-07-03T21:03:09.682Z,0.90
2018-07-03T21:05:37.885Z,0.70
2018-07-03T21:08:07.128Z,0.73
2018-07-03T21:10:35.318Z,0.80
2018-07-03T21:13:03.496Z,0.70
2018-07-03T21:15:31.685Z,0.93
2018-07-03T21:17:59.891Z,0.70
2018-07-03T21:20:28.044Z,0.70
2018-07-03T21:22:56.209Z,0.70
2018-07-03T21:25:24.366Z,0.77
2018-07-03T21:27:52.524Z,0.73
2018-07-03T21:30:20.680Z,0.90
2018-07-03T21:32:49.337Z,0.90
2018-07-03T21:35:17.498Z,1.10
2018-07-03T21:37:45.645Z,0.90
2018-07-03T21:40:13.905Z,1.00
2018-07-03T21:42:42.343Z,0.90
2018-07-03T21:45:10.511Z,1.10
2018-07-03T21:47:38.677Z,0.83
2018-07-03T21:50:06.849Z,0.80
2018-07-03T21:52:35.000Z,0.80
2018-07-03T21:55:03.210Z,0.70
2018-07-03T21:57:31.367Z,0.70
2018-07-03T21:59:59.639Z,0.77
2018-07-03T22:02:27.803Z,0.80
